KSMF data

Available data for KSMF from the past 2 hours
SACRAMENTO/METRO, CA
Metar
KSMF 261853Z 19006KT 10SM FEW030 BKN250 16/08 A3005 RMK AO2 SLP174 T01560078

18:53 UTC

Wind: 190° 6kt

Visibility: 10 SM

Sky: FEW 3000 ft

Temp: 16 deg C / 60.8 deg F

Dewpoint: 8 deg C / 46.4 deg F

Pressure: 30.05 inHg

TAF
KSMF 261738Z 2618/2718 13004KT P6SM VCSH SCT080 BKN210 FM270900 16010KT P6SM -RA OVC050